Data for 01/01/2015

Time Sea-Level Adjusted Pressure Absolute Pressure Temperature Relative Humidity Dew Point   
(mb) (inHg) (mb) (inHg) (C) (F) (%) (C) (F)
00:05 1022 30.18 851 25.13 -17.2 1.1 76 -20.4 -4.7
00:10 1022 30.18 851 25.13 -17 1.3 75 -20.4 -4.8
00:15 1022 30.18 851 25.13 -17 1.5 74 -20.5 -5
00:20 1022 30.18 851 25.13 -17 1.5 74 -20.5 -4.9
00:25 1022 30.18 851 25.13 -16.5 2.4 73 -20.2 -4.3
00:30 1022 30.18 852 25.16 -16.4 2.5 72 -20.4 -4.7
00:35 1022 30.18 852 25.16 -16.7 2 75 -20.2 -4.3
00:40 1023 30.21 852 25.16 -16.9 1.5 74 -20.5 -4.9
00:45 1023 30.21 852 25.16 -16.7 1.9 73 -20.4 -4.8
00:50 1023 30.21 852 25.16 -16.4 2.4 73 -20.2 -4.3
00:55 1023 30.21 852 25.16 -16.6 2.1 74 -20.2 -4.4
01:00 1023 30.21 852 25.16 -16.8 1.8 76 -20.1 -4.1
01:05 1023 30.21 852 25.16 -16.7 2 75 -20.1 -4.2
01:10 1022 30.18 852 25.16 -16.8 1.8 75 -20.3 -4.5
01:15 1022 30.18 852 25.16 -17.1 1.3 76 -20.4 -4.7
01:20 1022 30.18 852 25.16 -17.5 0.4 77 -20.7 -5.2
01:25 1022 30.18 852 25.16 -17.9 -0.3 79 -20.7 -5.3
01:30 1022 30.18 852 25.16 -17.6 0.3 84 -19.7 -3.5
01:35 1022 30.18 851 25.13 -17 1.3 78 -20.1 -4.1
01:40 1022 30.18 851 25.13 -17.2 1 79 -20 -4
01:45 1022 30.18 851 25.13 -16.8 1.8 78 -19.7 -3.5
01:50 1022 30.18 851 25.13 -16.4 2.6 76 -19.6 -3.3
01:55 1022 30.18 851 25.13 -16.2 2.9 74 -19.8 -3.6
02:00 1022 30.18 851 25.13 -16.2 2.8 76 -19.5 -3.1
02:05 1022 30.18 851 25.13 -16.2 2.9 76 -19.5 -3.2
02:10 1022 30.18 851 25.13 -16.2 2.9 74 -19.8 -3.7
02:15 1022 30.18 851 25.13 -16.3 2.7 74 -20 -3.9
02:20 1022 30.18 851 25.13 -16.6 2.2 75 -20.1 -4.1
02:25 1022 30.18 851 25.13 -16.8 1.9 77 -20 -3.9
02:30 1022 30.18 851 25.13 -16.8 1.7 78 -19.8 -3.7
02:35 1022 30.18 851 25.13 -16.9 1.6 79 -19.8 -3.6
02:40 1022 30.18 851 25.13 -16.8 1.8 77 -20 -4
02:45 1022 30.18 851 25.13 -17.1 1.2 77 -20.2 -4.3
02:50 1022 30.18 851 25.13 -17.2 1.1 78 -20.2 -4.3
02:55 1022 30.18 851 25.13 -17 1.3 80 -19.8 -3.6
03:00 1022 30.18 851 25.13 -17 1.4 78 -19.9 -3.9
03:05 1022 30.18 851 25.13 -17.3 0.8 79 -20.2 -4.3
03:10 1022 30.18 851 25.13 -17.3 0.8 79 -20.1 -4.2
03:15 1022 30.18 851 25.13 -17.1 1.3 79 -19.9 -3.8
03:20 1022 30.18 851 25.13 -17 1.5 79 -19.8 -3.6
03:25 1022 30.18 851 25.13 -17 1.5 81 -19.6 -3.2
03:30 1022 30.18 851 25.13 -16.9 1.7 80 -19.6 -3.2
03:35 1022 30.18 851 25.13 -17 1.5 81 -19.5 -3.1
03:40 1022 30.18 851 25.13 -16.9 1.6 81 -19.5 -3.1
03:45 1022 30.18 851 25.13 -16.7 2 79 -19.5 -3.1
03:50 1022 30.18 851 25.13 -16.6 2.2 79 -19.4 -3
03:55 1022 30.18 851 25.13 -16.3 2.6 78 -19.3 -2.8
04:00 1022 30.18 851 25.13 -16.3 2.7 78 -19.3 -2.7
04:05 1022 30.18 851 25.13 -16.2 2.8 77 -19.4 -2.9
04:10 1022 30.18 851 25.13 -16.1 2.9 78 -19.1 -2.4
04:15 1021 30.15 851 25.13 -16.3 2.6 79 -19.1 -2.4
04:20 1021 30.15 851 25.13 -16.4 2.5 78 -19.4 -3
04:25 1021 30.15 851 25.13 -16.1 2.9 77 -19.2 -2.6
04:30 1021 30.15 850 25.1 -15.8 3.7 76 -19.1 -2.4
04:35 1021 30.15 850 25.1 -15.8 3.6 75 -19.3 -2.7
04:40 1021 30.15 851 25.13 -15.8 3.5 77 -19 -2.2
04:45 1021 30.15 851 25.13 -15.5 4.1 75 -19 -2.2
04:50 1021 30.15 851 25.13 -15.7 3.7 74 -19.4 -2.9
04:55 1021 30.15 851 25.13 -16.4 2.5 79 -19.2 -2.6
05:00 1021 30.15 851 25.13 -16.4 2.5 77 -19.5 -3
05:05 1022 30.18 851 25.13 -16.4 2.5 80 -19.1 -2.4
05:10 1022 30.18 851 25.13 -16.2 2.9 78 -19.2 -2.5
05:15 1021 30.15 851 25.13 -15.9 3.4 77 -19 -2.3
05:20 1021 30.15 851 25.13 -15.9 3.3 76 -19.2 -2.6
05:25 1021 30.15 851 25.13 -16 3.2 73 -19.8 -3.7
05:30 1021 30.15 851 25.13 -16.8 1.8 78 -19.8 -3.6
05:35 1021 30.15 851 25.13 -16.9 1.6 79 -19.7 -3.5
05:40 1021 30.15 851 25.13 -16.8 1.8 80 -19.5 -3.1
05:45 1021 30.15 851 25.13 -16.5 2.2 80 -19.3 -2.7
05:50 1021 30.15 850 25.1 -16.4 2.5 80 -19 -2.2
05:55 1021 30.15 850 25.1 -16.2 2.8 78 -19.3 -2.7
06:00 1021 30.15 851 25.13 -16.2 2.8 77 -19.4 -2.9
06:05 1021 30.15 851 25.13 -16.3 2.7 77 -19.5 -3
06:10 1021 30.15 851 25.13 -16.5 2.2 77 -19.6 -3.4
06:15 1021 30.15 850 25.1 -16.6 2.1 78 -19.7 -3.4
06:20 1021 30.15 850 25.1 -16.6 2.1 78 -19.5 -3.1
06:25 1021 30.15 850 25.1 -16.4 2.4 78 -19.5 -3
06:30 1021 30.15 850 25.1 -16.4 2.4 78 -19.4 -2.9
06:35 1021 30.15 850 25.1 -16.3 2.6 77 -19.4 -3
06:40 1021 30.15 850 25.1 -16 3.1 76 -19.4 -2.9
06:45 1021 30.15 850 25.1 -16 3.3 75 -19.4 -2.8
06:50 1021 30.15 850 25.1 -15.8 3.5 74 -19.5 -3.1
06:55 1021 30.15 850 25.1 -15.6 4 75 -19 -2.2
07:00 1021 30.15 850 25.1 -15.6 3.8 73 -19.5 -3.1
07:05 1021 30.15 850 25.1 -15.4 4.3 72 -19.4 -2.9
07:10 1021 30.15 850 25.1 -15.2 4.6 72 -19.3 -2.7
07:15 1021 30.15 850 25.1 -15.2 4.6 71 -19.3 -2.8
07:20 1021 30.15 850 25.1 -15.4 4.4 73 -19.2 -2.5
07:25 1021 30.15 850 25.1 -15.4 4.3 71 -19.5 -3.1
07:30 1021 30.15 850 25.1 -15.4 4.3 74 -19.1 -2.3
07:35 1021 30.15 850 25.1 -15.9 3.3 76 -19.2 -2.6
07:40 1021 30.15 850 25.1 -16.2 2.9 77 -19.4 -2.9
07:45 1021 30.15 850 25.1 -16 3.2 77 -19.2 -2.6
07:50 1021 30.15 850 25.1 -15.6 3.9 75 -19.1 -2.4
07:55 1021 30.15 850 25.1 -15.2 4.7 73 -19 -2.2
08:00 1021 30.15 850 25.1 -14.9 5.1 72 -18.9 -2.1
08:05 1021 30.15 850 25.1 -15 5 72 -19 -2.3
08:10 1021 30.15 850 25.1 -15.2 4.6 73 -19.1 -2.4
08:15 1021 30.15 850 25.1 -15.1 4.7 73 -18.9 -2.1
08:20 1021 30.15 850 25.1 -15.4 4.4 73 -19.2 -2.6
08:25 1021 30.15 850 25.1 -16.3 2.7 78 -19.3 -2.7
08:30 1021 30.15 850 25.1 -16.2 2.8 78 -19.2 -2.5
08:35 1021 30.15 850 25.1 -15.8 3.6 77 -19 -2.2
08:40 1021 30.15 850 25.1 -15.7 3.7 75 -19.2 -2.5
08:45 1021 30.15 850 25.1 -15.9 3.5 75 -19.3 -2.8
08:50 1021 30.15 850 25.1 -16.3 2.7 77 -19.4 -3
08:55 1021 30.15 850 25.1 -16.4 2.6 77 -19.5 -3.2
09:00 1021 30.15 850 25.1 -16.4 2.5 78 -19.4 -2.9
09:05 1021 30.15 850 25.1 -16 3.2 77 -19.1 -2.4
09:10 1021 30.15 850 25.1 -15.7 3.8 79 -18.6 -1.5
09:15 1021 30.15 850 25.1 -15.3 4.6 76 -18.6 -1.6
09:20 1021 30.15 850 25.1 -15.2 4.7 74 -18.7 -1.7
09:25 1021 30.15 850 25.1 -15.3 4.6 74 -18.9 -2
09:30 1021 30.15 850 25.1 -15.1 4.9 72 -19.1 -2.4
09:35 1021 30.15 850 25.1 -15 5.1 70 -19.3 -2.8
09:40 1021 30.15 851 25.13 -15 5.1 70 -19.2 -2.6
09:45 1021 30.15 851 25.13 -14.7 5.5 70 -19.1 -2.4
09:50 1021 30.15 851 25.13 -15.2 4.6 72 -19.3 -2.7
09:55 1021 30.15 851 25.13 -15.8 3.5 73 -19.7 -3.4
10:00 1021 30.15 851 25.13 -16.2 2.8 73 -19.9 -3.9
10:05 1021 30.15 851 25.13 -16.1 3 73 -19.8 -3.7
10:10 1021 30.15 851 25.13 -15.9 3.4 75 -19.4 -2.9
10:15 1021 30.15 851 25.13 -15 5.1 70 -19.3 -2.8
10:20 1021 30.15 850 25.1 -14.3 6.3 68 -19 -2.2
10:25 1021 30.15 851 25.13 -14.3 6.3 67 -19.1 -2.4
10:30 1021 30.15 851 25.13 -14.2 6.5 67 -19 -2.2
10:35 1021 30.15 851 25.13 -13.9 6.9 67 -18.8 -1.9
10:40 1021 30.15 851 25.13 -13.1 8.5 65 -18.4 -1.2
10:45 1021 30.15 851 25.13 -12.5 9.5 62 -18.3 -0.9
10:50 1021 30.15 851 25.13 -12.3 9.9 62 -18.2 -0.7
10:55 1021 30.15 851 25.13 -12.4 9.7 64 -17.9 -0.3
11:00 1021 30.15 851 25.13 -12.5 9.6 63 -18.1 -0.6
11:05 1022 30.18 851 25.13 -12.2 10 62 -18.1 -0.6
11:10 1021 30.15 851 25.13 -12.1 10.2 62 -17.9 -0.3
11:15 1021 30.15 851 25.13 -12.1 10.2 63 -17.9 -0.2
11:20 1022 30.18 851 25.13 -12.2 10 62 -18 -0.4
11:25 1021 30.15 851 25.13 -11.6 11.1 60 -17.9 -0.2
11:30 1021 30.15 851 25.13 -11.1 12 59 -17.7 0.2
11:35 1021 30.15 851 25.13 -10.7 12.7 57 -17.6 0.4
11:40 1021 30.15 851 25.13 -10.7 12.8 58 -17.4 0.6
11:45 1021 30.15 850 25.1 -10.1 13.8 56 -17.4 0.7
11:50 1021 30.15 850 25.1 -10 14.1 55 -17.5 0.5
11:55 1021 30.15 850 25.1 -9.6 14.7 53 -17.5 0.6
12:00 1021 30.15 850 25.1 -9.5 14.9 53 -17.4 0.7
12:05 1021 30.15 850 25.1 -9.2 15.5 50 -17.7 0.1
12:10 1021 30.15 850 25.1 -9.2 15.5 53 -17.2 1.1
12:15 1021 30.15 850 25.1 -9.4 15 53 -17.4 0.6
12:20 1021 30.15 850 25.1 -9.2 15.5 51 -17.5 0.5
12:25 1021 30.15 850 25.1 -9.3 15.3 52 -17.5 0.5
12:30 1021 30.15 850 25.1 -8.8 16.2 48 -17.8 -0
12:35 1020 30.12 850 25.1 -8.7 16.4 52 -16.9 1.5
12:40 1020 30.12 850 25.1 -8.7 16.4 51 -17.1 1.2
12:45 1020 30.12 849 25.07 -8.6 16.5 51 -17.1 1.3
12:50 1020 30.12 849 25.07 -8.9 15.9 53 -16.9 1.6
12:55 1020 30.12 849 25.07 -8.4 16.9 50 -17 1.5
13:00 1020 30.12 849 25.07 -8.1 17.4 50 -16.8 1.7
13:05 1020 30.12 849 25.07 -7.7 18.1 48 -16.8 1.7
13:10 1020 30.12 849 25.07 -7.8 17.9 47 -17.2 1.1
13:15 1020 30.12 849 25.07 -8.1 17.5 49 -17 1.4
13:20 1020 30.12 849 25.07 -7.6 18.3 48 -16.7 1.9
13:25 1020 30.12 849 25.07 -7.3 18.9 47 -16.8 1.7
13:30 1020 30.12 849 25.07 -7.2 19 48 -16.5 2.4
13:35 1020 30.12 849 25.07 -6.9 19.5 45 -16.9 1.5
13:40 1020 30.12 849 25.07 -7.4 18.7 47 -17 1.5
13:45 1020 30.12 849 25.07 -7 19.5 44 -17.4 0.7
13:50 1020 30.12 849 25.07 -8.1 17.5 50 -16.6 2
13:55 1019 30.09 849 25.07 -7.8 18.1 47 -17.2 1
14:00 1019 30.09 849 25.07 -7 19.5 45 -17 1.4
14:05 1019 30.09 848 25.04 -6.8 19.7 46 -16.6 2.1
14:10 1019 30.09 848 25.04 -6.9 19.6 47 -16.5 2.3
14:15 1019 30.09 848 25.04 -8.1 17.4 49 -17 1.3
14:20 1019 30.09 849 25.07 -8.9 16 52 -17.1 1.3
14:25 1019 30.09 848 25.04 -9.3 15.3 50 -17.8 -0
14:30 1019 30.09 848 25.04 -8.3 17.1 47 -17.7 0.2
14:35 1019 30.09 848 25.04 -7.9 17.7 47 -17.3 0.9
14:40 1019 30.09 848 25.04 -8.9 16 50 -17.5 0.5
14:45 1019 30.09 848 25.04 -8.4 16.9 48 -17.6 0.3
14:50 1019 30.09 848 25.04 -7.8 18 48 -17 1.5
14:55 1019 30.09 848 25.04 -8.2 17.2 48 -17.4 0.7
15:00 1019 30.09 848 25.04 -7.9 17.8 48 -17.1 1.2
15:05 1019 30.09 848 25.04 -7.2 19 45 -17.1 1.2
15:10 1019 30.09 848 25.04 -7.6 18.4 47 -17 1.5
15:15 1019 30.09 848 25.04 -7.5 18.5 47 -17 1.4
15:20 1019 30.09 848 25.04 -7.6 18.4 47 -17 1.3
15:25 1019 30.09 848 25.04 -7.4 18.7 47 -16.9 1.6
15:30 1019 30.09 848 25.04 -7.3 18.9 48 -16.5 2.2
15:35 1019 30.09 848 25.04 -7.5 18.5 49 -16.5 2.3
15:40 1019 30.09 848 25.04 -7.4 18.8 47 -16.8 1.7
15:45 1019 30.09 848 25.04 -6.7 19.9 46 -16.5 2.4
15:50 1019 30.09 848 25.04 -6.9 19.6 45 -17 1.4
15:55 1019 30.09 848 25.04 -6.6 20.2 44 -16.9 1.7
16:00 1019 30.09 848 25.04 -6.2 20.8 43 -16.9 1.5
16:05 1019 30.09 848 25.04 -6.1 21 42 -17 1.5
16:10 1019 30.09 848 25.04 -6.4 20.4 45 -16.5 2.3
16:15 1019 30.09 848 25.04 -7 19.5 45 -17 1.4
16:20 1019 30.09 848 25.04 -7.3 19 47 -16.9 1.6
16:25 1019 30.09 848 25.04 -8.4 16.8 52 -16.5 2.3
16:30 1019 30.09 848 25.04 -8.7 16.3 50 -17.4 0.8
16:35 1019 30.09 848 25.04 -9.2 15.5 51 -17.6 0.4
16:40 1019 30.09 848 25.04 -8.9 16 50 -17.5 0.4
16:45 1019 30.09 848 25.04 -8.6 16.5 49 -17.5 0.6
16:50 1019 30.09 848 25.04 -8.1 17.5 48 -17.3 0.9
16:55 1019 30.09 848 25.04 -7.8 17.9 47 -17.3 0.9
17:00 1019 30.09 848 25.04 -7.7 18.1 50 -16.5 2.4
17:05 1019 30.09 848 25.04 -7.8 18.1 49 -16.6 2
17:10 1019 30.09 848 25.04 -8 17.6 51 -16.5 2.3
17:15 1019 30.09 848 25.04 -7.8 17.9 49 -16.7 1.9
17:20 1019 30.09 848 25.04 -8.2 17.2 51 -16.7 2
17:25 1019 30.09 848 25.04 -8.2 17.2 51 -16.6 2.1
17:30 1019 30.09 848 25.04 -8.2 17.2 52 -16.4 2.4
17:35 1019 30.09 848 25.04 -8.6 16.6 52 -16.7 1.9
17:40 1019 30.09 848 25.04 -8.6 16.4 53 -16.5 2.3
17:45 1019 30.09 848 25.04 -9 15.9 56 -16.2 2.8
17:50 1019 30.09 848 25.04 -8.8 16.1 56 -16.1 3
17:55 1019 30.09 848 25.04 -8.7 16.4 56 -15.8 3.5
18:00 1019 30.09 848 25.04 -8.9 15.9 57 -15.9 3.4
18:05 1019 30.09 848 25.04 -9.3 15.2 59 -16 3.2
18:10 1019 30.09 848 25.04 -9.4 15 59 -16 3.2
18:15 1019 30.09 848 25.04 -9.7 14.5 60 -16.1 3.1
18:20 1019 30.09 848 25.04 -9.7 14.5 59 -16.4 2.5
18:25 1019 30.09 848 25.04 -10.3 13.4 61 -16.4 2.4
18:30 1019 30.09 848 25.04 -11.3 11.8 63 -17 1.3
18:35 1019 30.09 848 25.04 -11.8 10.8 64 -17.3 0.9
18:40 1019 30.09 848 25.04 -12.2 10.1 64 -17.6 0.3
18:45 1019 30.09 848 25.04 -12.2 10.1 64 -17.7 0.2
18:50 1019 30.09 848 25.04 -12.2 10.1 65 -17.4 0.7
18:55 1019 30.09 848 25.04 -12.1 10.2 65 -17.3 0.8
19:00 1019 30.09 848 25.04 -12 10.3 65 -17.4 0.7
19:05 1019 30.09 848 25.04 -12.1 10.3 64 -17.5 0.5
19:10 1019 30.09 848 25.04 -12 10.4 63 -17.8 -0
19:15 1019 30.09 848 25.04 -11.7 10.9 63 -17.5 0.5
19:20 1019 30.09 848 25.04 -11.7 10.9 63 -17.4 0.6
19:25 1019 30.09 848 25.04 -11.6 11.1 62 -17.6 0.4
19:30 1019 30.09 848 25.04 -11.6 11.1 63 -17.4 0.7
19:35 1019 30.09 848 25.04 -11.8 10.7 60 -18.1 -0.5
19:40 1019 30.09 849 25.07 -11.8 10.8 61 -17.9 -0.2
19:45 1019 30.09 849 25.07 -11.6 11.1 63 -17.4 0.7
19:50 1019 30.09 849 25.07 -11.6 11 65 -17 1.4
19:55 1020 30.12 849 25.07 -11.9 10.6 68 -16.7 1.9
20:00 1020 30.12 849 25.07 -12.3 9.9 69 -16.8 1.8
20:05 1020 30.12 849 25.07 -12.6 9.4 71 -16.8 1.7
20:10 1020 30.12 849 25.07 -12.8 9 73 -16.7 1.9
20:15 1020 30.12 849 25.07 -13 8.7 72 -16.9 1.5
20:20 1020 30.12 849 25.07 -13 8.6 72 -17 1.4
20:25 1020 30.12 849 25.07 -12.9 8.8 71 -17.1 1.2
20:30 1020 30.12 849 25.07 -13 8.7 72 -17 1.4
20:35 1020 30.12 849 25.07 -13 8.7 72 -17 1.5
20:40 1020 30.12 849 25.07 -13.1 8.5 73 -17 1.5
20:45 1020 30.12 849 25.07 -12.7 9.1 70 -17 1.3
20:50 1020 30.12 849 25.07 -12.6 9.4 70 -16.9 1.6
20:55 1019 30.09 849 25.07 -12.7 9.1 70 -17.1 1.2
21:00 1019 30.09 849 25.07 -13.7 7.3 75 -17.2 1
21:05 1019 30.09 849 25.07 -13.5 7.6 71 -17.7 0.1
21:10 1019 30.09 849 25.07 -13.2 8.2 70 -17.5 0.5
21:15 1019 30.09 849 25.07 -13.1 8.4 71 -17.4 0.7
21:20 1019 30.09 849 25.07 -13 8.5 69 -17.6 0.4
21:25 1020 30.12 849 25.07 -12.9 8.9 68 -17.6 0.3
21:30 1019 30.09 849 25.07 -13 8.6 69 -17.5 0.4
21:35 1019 30.09 849 25.07 -13.2 8.2 70 -17.6 0.3
21:40 1019 30.09 849 25.07 -13 8.5 70 -17.4 0.6
21:45 1019 30.09 849 25.07 -13.2 8.2 72 -17.2 1.1
21:50 1019 30.09 849 25.07 -13.3 8.1 72 -17.4 0.7
21:55 1019 30.09 849 25.07 -13.1 8.4 72 -17.2 1
22:00 1019 30.09 849 25.07 -13 8.5 70 -17.4 0.8
22:05 1019 30.09 849 25.07 -13 8.7 72 -17.1 1.3
22:10 1019 30.09 849 25.07 -13.1 8.4 72 -17.1 1.2
22:15 1019 30.09 848 25.04 -12.9 8.9 73 -16.8 1.7
22:20 1019 30.09 848 25.04 -12.7 9.1 72 -16.7 1.9
22:25 1019 30.09 848 25.04 -12.6 9.3 72 -16.6 2.1
22:30 1019 30.09 848 25.04 -12.6 9.4 72 -16.5 2.2
22:35 1019 30.09 848 25.04 -12.6 9.2 76 -16.1 3
22:40 1019 30.09 848 25.04 -12.4 9.6 77 -15.7 3.8
22:45 1019 30.09 848 25.04 -12 10.3 73 -15.9 3.4
22:50 1019 30.09 848 25.04 -11.9 10.6 72 -15.9 3.3
22:55 1019 30.09 848 25.04 -12 10.3 73 -16 3.2
23:00 1019 30.09 848 25.04 -12.2 10.1 73 -16.1 3
23:05 1019 30.09 848 25.04 -12.2 10.1 72 -16.2 2.8
23:10 1019 30.09 848 25.04 -11.9 10.5 72 -16.1 3.1
23:15 1019 30.09 848 25.04 -11.6 11.1 71 -15.8 3.5
23:20 1019 30.09 848 25.04 -11.4 11.4 70 -15.8 3.6
23:25 1019 30.09 848 25.04 -11.6 11.1 71 -15.9 3.4
23:30 1019 30.09 848 25.04 -12.2 10.1 75 -15.8 3.6
23:35 1019 30.09 848 25.04 -12.4 9.7 76 -15.8 3.6
23:40 1019 30.09 848 25.04 -12.4 9.7 76 -15.8 3.6
23:45 1019 30.09 848 25.04 -12.5 9.5 78 -15.7 3.8
23:50 1019 30.09 848 25.04 -12 10.3 77 -15.3 4.5
23:55 1019 30.09 848 25.04 -12 10.4 76 -15.4 4.2
24:00 1019 30.09 848 25.04 -12.3 9.9 78 -15.3 4.4